TAM3122 SBSP-SBRJ
Flight info
| Callsign | TAM3122 |
|---|---|
| Flight time | 0h 36m |
| Altitude | 25000 |
| Route | NIBRU UZ171 KEVUN |
| Aircraft | A319/M-SDE3FGHIRWY/LB1 |
Departure
| Time | 2026-04-30 14:16 |
|---|---|
| Airport | Congonhas–Deputado Freitas Nobre Airport (SBSP) |
Arrival
| Time | 2026-04-30 14:52 |
|---|---|
| Airport | Santos Dumont Airport (SBRJ) |
| Time | Latitude | Longitude | Altitude | Speed | Heading |
|---|---|---|---|---|---|
| 2026-04-30 14:04 | -23.62814 | -46.65758 | 2601 ft | 0 kts | 238° |
| 2026-04-30 14:08 | -23.62798 | -46.65731 | 2601 ft | 3 kts | 251° |
| 2026-04-30 14:08 | -23.62798 | -46.65711 | 2601 ft | 3 kts | 328° |
| 2026-04-30 14:08 | -23.62801 | -46.65710 | 2601 ft | 0 kts | 328° |
| 2026-04-30 14:09 | -23.62800 | -46.65710 | 2601 ft | 0 kts | 328° |
| 2026-04-30 14:09 | -23.62797 | -46.65712 | 2601 ft | 1 kts | 328° |
| 2026-04-30 14:10 | -23.62786 | -46.65719 | 2601 ft | 4 kts | 328° |
| 2026-04-30 14:10 | -23.62746 | -46.65738 | 2601 ft | 8 kts | 340° |
| 2026-04-30 14:10 | -23.62717 | -46.65748 | 2601 ft | 1 kts | 344° |
| 2026-04-30 14:10 | -23.62696 | -46.65754 | 2601 ft | 5 kts | 344° |
| 2026-04-30 14:11 | -23.62659 | -46.65766 | 2602 ft | 6 kts | 343° |
| 2026-04-30 14:11 | -23.62617 | -46.65789 | 2602 ft | 7 kts | 328° |
| 2026-04-30 14:11 | -23.62576 | -46.65817 | 2602 ft | 8 kts | 328° |
| 2026-04-30 14:11 | -23.62525 | -46.65852 | 2602 ft | 9 kts | 327° |
| 2026-04-30 14:12 | -23.62468 | -46.65892 | 2601 ft | 10 kts | 327° |
| 2026-04-30 14:12 | -23.62402 | -46.65939 | 2601 ft | 12 kts | 327° |
| 2026-04-30 14:12 | -23.62347 | -46.65977 | 2600 ft | 5 kts | 327° |
| 2026-04-30 14:12 | -23.62325 | -46.65992 | 2600 ft | 6 kts | 328° |
| 2026-04-30 14:13 | -23.62273 | -46.66027 | 2600 ft | 7 kts | 328° |
| 2026-04-30 14:13 | -23.62224 | -46.66054 | 2600 ft | 9 kts | 335° |
| 2026-04-30 14:13 | -23.62180 | -46.66082 | 2599 ft | 5 kts | 326° |
| 2026-04-30 14:13 | -23.62147 | -46.66106 | 2599 ft | 6 kts | 326° |
| 2026-04-30 14:14 | -23.62139 | -46.66112 | 2599 ft | 1 kts | 326° |
| 2026-04-30 14:14 | -23.62117 | -46.66127 | 2592 ft | 8 kts | 333° |
| 2026-04-30 14:14 | -23.62039 | -46.66111 | 2596 ft | 11 kts | 54° |
| 2026-04-30 14:14 | -23.62076 | -46.66056 | 2597 ft | 0 kts | 146° |
| 2026-04-30 14:15 | -23.62153 | -46.66002 | 2598 ft | 50 kts | 148° |
| 2026-04-30 14:15 | -23.62690 | -46.65630 | 2607 ft | 129 kts | 147° |
| 2026-04-30 14:15 | -23.63618 | -46.64987 | 2765 ft | 176 kts | 147° |
| 2026-04-30 14:16 | -23.64643 | -46.64273 | 3486 ft | 177 kts | 147° |
| 2026-04-30 14:16 | -23.65571 | -46.63296 | 3784 ft | 198 kts | 124° |
| 2026-04-30 14:16 | -23.66282 | -46.61905 | 4053 ft | 222 kts | 116° |
| 2026-04-30 14:16 | -23.66980 | -46.60300 | 4416 ft | 247 kts | 115° |
| 2026-04-30 14:17 | -23.67747 | -46.58524 | 4982 ft | 269 kts | 115° |
| 2026-04-30 14:17 | -23.68583 | -46.56644 | 5790 ft | 280 kts | 116° |
| 2026-04-30 14:17 | -23.69468 | -46.54721 | 6716 ft | 286 kts | 117° |
| 2026-04-30 14:17 | -23.70384 | -46.52783 | 7616 ft | 290 kts | 118° |
| 2026-04-30 14:18 | -23.71274 | -46.50785 | 8526 ft | 296 kts | 111° |
| 2026-04-30 14:18 | -23.71752 | -46.48581 | 9420 ft | 302 kts | 95° |
| 2026-04-30 14:18 | -23.71330 | -46.43884 | 10654 ft | 330 kts | 80° |
| 2026-04-30 14:19 | -23.70589 | -46.38799 | 11946 ft | 346 kts | 81° |
| 2026-04-30 14:19 | -23.70221 | -46.36192 | 12656 ft | 350 kts | 81° |
| 2026-04-30 14:19 | -23.69851 | -46.33557 | 13375 ft | 354 kts | 81° |
| 2026-04-30 14:20 | -23.69482 | -46.30922 | 14049 ft | 358 kts | 81° |
| 2026-04-30 14:20 | -23.69096 | -46.28192 | 14653 ft | 361 kts | 81° |
| 2026-04-30 14:20 | -23.68318 | -46.22757 | 15828 ft | 369 kts | 81° |
| 2026-04-30 14:21 | -23.67917 | -46.19979 | 16404 ft | 372 kts | 81° |
| 2026-04-30 14:21 | -23.67511 | -46.17179 | 16991 ft | 376 kts | 81° |
| 2026-04-30 14:21 | -23.66688 | -46.11483 | 18130 ft | 384 kts | 81° |
| 2026-04-30 14:22 | -23.66275 | -46.08591 | 18654 ft | 388 kts | 81° |
| 2026-04-30 14:22 | -23.65438 | -46.02723 | 19613 ft | 396 kts | 80° |
| 2026-04-30 14:22 | -23.65010 | -45.99741 | 20097 ft | 400 kts | 80° |
| 2026-04-30 14:23 | -23.64140 | -45.93692 | 21033 ft | 408 kts | 80° |
| 2026-04-30 14:23 | -23.63244 | -45.87515 | 21969 ft | 416 kts | 80° |
| 2026-04-30 14:24 | -23.62330 | -45.81226 | 22894 ft | 424 kts | 79° |
| 2026-04-30 14:24 | -23.61867 | -45.78033 | 23354 ft | 428 kts | 79° |
| 2026-04-30 14:25 | -23.60928 | -45.71564 | 24169 ft | 436 kts | 79° |
| 2026-04-30 14:25 | -23.59963 | -45.64984 | 24950 ft | 443 kts | 79° |
| 2026-04-30 14:26 | -23.58994 | -45.58358 | 25117 ft | 445 kts | 79° |
| 2026-04-30 14:26 | -23.58499 | -45.54991 | 25113 ft | 454 kts | 79° |
| 2026-04-30 14:26 | -23.57489 | -45.48171 | 25114 ft | 457 kts | 79° |
| 2026-04-30 14:27 | -23.56941 | -45.44759 | 25114 ft | 457 kts | 77° |
| 2026-04-30 14:27 | -23.56292 | -45.41368 | 25114 ft | 457 kts | 76° |
| 2026-04-30 14:27 | -23.55568 | -45.38003 | 25112 ft | 456 kts | 75° |
| 2026-04-30 14:28 | -23.54050 | -45.31330 | 25114 ft | 457 kts | 74° |
| 2026-04-30 14:28 | -23.53296 | -45.27970 | 25114 ft | 457 kts | 75° |
| 2026-04-30 14:28 | -23.52559 | -45.24606 | 25114 ft | 457 kts | 75° |
| 2026-04-30 14:28 | -23.51839 | -45.21236 | 25113 ft | 457 kts | 75° |
| 2026-04-30 14:29 | -23.50424 | -45.14488 | 25113 ft | 457 kts | 75° |
| 2026-04-30 14:29 | -23.49234 | -45.08837 | 25107 ft | 457 kts | 75° |
| 2026-04-30 14:30 | -23.46829 | -44.97645 | 25101 ft | 457 kts | 75° |
| 2026-04-30 14:31 | -23.45373 | -44.90914 | 25093 ft | 456 kts | 75° |
| 2026-04-30 14:31 | -23.43882 | -44.84202 | 25094 ft | 456 kts | 74° |
| 2026-04-30 14:31 | -23.43131 | -44.80847 | 25098 ft | 456 kts | 74° |
| 2026-04-30 14:32 | -23.41607 | -44.74074 | 24048 ft | 469 kts | 74° |
| 2026-04-30 14:32 | -23.40836 | -44.70623 | 23354 ft | 468 kts | 75° |
| 2026-04-30 14:32 | -23.40076 | -44.67205 | 22768 ft | 461 kts | 75° |
| 2026-04-30 14:33 | -23.39327 | -44.63837 | 22207 ft | 455 kts | 75° |
| 2026-04-30 14:33 | -23.37854 | -44.57227 | 21107 ft | 444 kts | 75° |
| 2026-04-30 14:33 | -23.37125 | -44.53978 | 20546 ft | 441 kts | 75° |
| 2026-04-30 14:34 | -23.36400 | -44.50747 | 19982 ft | 438 kts | 75° |
| 2026-04-30 14:34 | -23.35679 | -44.47540 | 19392 ft | 435 kts | 75° |
| 2026-04-30 14:34 | -23.34961 | -44.44350 | 18820 ft | 433 kts | 75° |
| 2026-04-30 14:34 | -23.34054 | -44.41244 | 18224 ft | 428 kts | 65° |
| 2026-04-30 14:35 | -23.31978 | -44.36410 | 17195 ft | 420 kts | 63° |
| 2026-04-30 14:35 | -23.30334 | -44.32588 | 16402 ft | 414 kts | 63° |
| 2026-04-30 14:35 | -23.29125 | -44.29772 | 15815 ft | 408 kts | 63° |
| 2026-04-30 14:36 | -23.27932 | -44.26993 | 15231 ft | 403 kts | 63° |
| 2026-04-30 14:36 | -23.26752 | -44.24244 | 14643 ft | 398 kts | 63° |
| 2026-04-30 14:36 | -23.25586 | -44.21538 | 14065 ft | 393 kts | 63° |
| 2026-04-30 14:36 | -23.24434 | -44.18865 | 13444 ft | 387 kts | 63° |
| 2026-04-30 14:37 | -23.23305 | -44.16237 | 12862 ft | 380 kts | 63° |
| 2026-04-30 14:37 | -23.22568 | -44.14522 | 12492 ft | 376 kts | 64° |
| 2026-04-30 14:37 | -23.21467 | -44.11968 | 11935 ft | 370 kts | 64° |
| 2026-04-30 14:37 | -23.20016 | -44.08614 | 11200 ft | 363 kts | 64° |
| 2026-04-30 14:38 | -23.18937 | -44.06161 | 10813 ft | 354 kts | 63° |
| 2026-04-30 14:38 | -23.17876 | -44.03826 | 10580 ft | 343 kts | 63° |
| 2026-04-30 14:38 | -23.17163 | -44.02286 | 10503 ft | 333 kts | 63° |
| 2026-04-30 14:38 | -23.16138 | -44.00088 | 10387 ft | 319 kts | 62° |
| 2026-04-30 14:39 | -23.15165 | -43.97974 | 10239 ft | 308 kts | 64° |
| 2026-04-30 14:39 | -23.14253 | -43.95893 | 10036 ft | 301 kts | 64° |
| 2026-04-30 14:39 | -23.13374 | -43.93832 | 9938 ft | 301 kts | 65° |
| 2026-04-30 14:40 | -23.11640 | -43.89717 | 9617 ft | 298 kts | 65° |
| 2026-04-30 14:40 | -23.10775 | -43.87674 | 9457 ft | 297 kts | 65° |
| 2026-04-30 14:40 | -23.09909 | -43.85640 | 9287 ft | 296 kts | 65° |
| 2026-04-30 14:40 | -23.09041 | -43.83609 | 9135 ft | 296 kts | 65° |
| 2026-04-30 14:41 | -23.08175 | -43.81582 | 8973 ft | 296 kts | 65° |
| 2026-04-30 14:41 | -23.07310 | -43.79561 | 8798 ft | 295 kts | 65° |
| 2026-04-30 14:41 | -23.06447 | -43.77546 | 8637 ft | 294 kts | 65° |
| 2026-04-30 14:41 | -23.05582 | -43.75536 | 8475 ft | 293 kts | 65° |
| 2026-04-30 14:42 | -23.04720 | -43.73531 | 8319 ft | 293 kts | 65° |
| 2026-04-30 14:42 | -23.03860 | -43.71527 | 8161 ft | 293 kts | 65° |
| 2026-04-30 14:42 | -23.03001 | -43.69530 | 8000 ft | 292 kts | 65° |
| 2026-04-30 14:42 | -23.02137 | -43.67542 | 7717 ft | 290 kts | 64° |
| 2026-04-30 14:43 | -23.01270 | -43.65563 | 7449 ft | 290 kts | 64° |
| 2026-04-30 14:43 | -23.00406 | -43.63595 | 7180 ft | 288 kts | 64° |
| 2026-04-30 14:43 | -22.99548 | -43.61641 | 6946 ft | 285 kts | 64° |
| 2026-04-30 14:43 | -22.98696 | -43.59705 | 6797 ft | 284 kts | 64° |
| 2026-04-30 14:44 | -22.97856 | -43.57797 | 6637 ft | 284 kts | 64° |
| 2026-04-30 14:44 | -22.97010 | -43.55872 | 6473 ft | 282 kts | 64° |
| 2026-04-30 14:44 | -22.96165 | -43.53951 | 6300 ft | 282 kts | 64° |
| 2026-04-30 14:44 | -22.95323 | -43.52037 | 6135 ft | 281 kts | 64° |
| 2026-04-30 14:45 | -22.94483 | -43.50124 | 5951 ft | 281 kts | 64° |
| 2026-04-30 14:45 | -22.93661 | -43.48209 | 5684 ft | 279 kts | 63° |
| 2026-04-30 14:45 | -22.92851 | -43.46299 | 5435 ft | 278 kts | 64° |
| 2026-04-30 14:45 | -22.92049 | -43.44396 | 5190 ft | 277 kts | 64° |
| 2026-04-30 14:46 | -22.91249 | -43.42501 | 4956 ft | 275 kts | 64° |
| 2026-04-30 14:46 | -22.90458 | -43.40635 | 4704 ft | 269 kts | 64° |
| 2026-04-30 14:46 | -22.89685 | -43.38810 | 4461 ft | 263 kts | 64° |
| 2026-04-30 14:46 | -22.88932 | -43.37021 | 4238 ft | 258 kts | 64° |
| 2026-04-30 14:47 | -22.88399 | -43.35183 | 4012 ft | 256 kts | 83° |
| 2026-04-30 14:47 | -22.88454 | -43.33273 | 3687 ft | 251 kts | 96° |
| 2026-04-30 14:47 | -22.88637 | -43.31415 | 3376 ft | 243 kts | 95° |
| 2026-04-30 14:47 | -22.88807 | -43.29633 | 3068 ft | 232 kts | 95° |
| 2026-04-30 14:48 | -22.88967 | -43.27929 | 2778 ft | 221 kts | 96° |
| 2026-04-30 14:48 | -22.89207 | -43.26330 | 2505 ft | 210 kts | 110° |
| 2026-04-30 14:48 | -22.89806 | -43.24945 | 2240 ft | 197 kts | 116° |
| 2026-04-30 14:48 | -22.90393 | -43.23642 | 1959 ft | 187 kts | 116° |
| 2026-04-30 14:49 | -22.90940 | -43.22437 | 1763 ft | 168 kts | 118° |
| 2026-04-30 14:49 | -22.91547 | -43.21475 | 1632 ft | 146 kts | 132° |
| 2026-04-30 14:49 | -22.92266 | -43.20760 | 1420 ft | 137 kts | 140° |
| 2026-04-30 14:49 | -22.92977 | -43.20091 | 1209 ft | 134 kts | 140° |
| 2026-04-30 14:50 | -22.94297 | -43.18713 | 809 ft | 132 kts | 126° |
| 2026-04-30 14:50 | -22.94703 | -43.17827 | 647 ft | 132 kts | 108° |
| 2026-04-30 14:51 | -22.94191 | -43.16180 | 527 ft | 138 kts | 11° |
| 2026-04-30 14:51 | -22.93248 | -43.16164 | 302 ft | 134 kts | 360° |
| 2026-04-30 14:51 | -22.91424 | -43.16258 | 25 ft | 123 kts | 358° |
| 2026-04-30 14:52 | -22.90728 | -43.16303 | 26 ft | 64 kts | 356° |
| 2026-04-30 14:52 | -22.90492 | -43.16404 | 24 ft | 17 kts | 267° |
| 2026-04-30 14:52 | -22.90499 | -43.16534 | 22 ft | 13 kts | 265° |
| 2026-04-30 14:53 | -22.90644 | -43.16549 | 24 ft | 12 kts | 177° |
| 2026-04-30 14:53 | -22.90727 | -43.16544 | 24 ft | 10 kts | 176° |
| 2026-04-30 14:54 | -22.90884 | -43.16548 | 22 ft | 8 kts | 175° |
| 2026-04-30 14:54 | -22.91022 | -43.16537 | 22 ft | 12 kts | 177° |
| 2026-04-30 14:55 | -22.91214 | -43.16512 | 22 ft | 14 kts | 176° |
| 2026-04-30 14:55 | -22.91303 | -43.16508 | 24 ft | 10 kts | 179° |
| 2026-04-30 14:55 | -22.91318 | -43.16567 | 22 ft | 5 kts | 268° |
| 2026-04-30 14:56 | -22.91319 | -43.16578 | 22 ft | 0 kts | 268° |